createdAt,value
2024-02-29T00:01:17.341Z,52.25
2024-02-29T00:03:44.967Z,52.73
2024-02-29T00:06:12.738Z,52.84
2024-02-29T00:08:41.597Z,52.34
2024-02-29T00:11:09.164Z,51.89
2024-02-29T00:13:36.788Z,52.68
2024-02-29T00:16:04.662Z,52.53
2024-02-29T00:18:32.503Z,52.54
2024-02-29T00:21:00.303Z,51.92
2024-02-29T00:23:27.820Z,52.64
2024-02-29T00:25:57.907Z,52.81
2024-02-29T00:28:25.453Z,52.49
2024-02-29T00:30:53.018Z,52.67
2024-02-29T00:33:20.618Z,52.46
2024-02-29T00:35:49.684Z,52.07
2024-02-29T00:38:16.856Z,52.38
2024-02-29T00:40:44.477Z,52.20
2024-02-29T00:43:13.494Z,51.95
2024-02-29T00:45:41.211Z,52.50
2024-02-29T00:48:09.258Z,52.26
2024-02-29T00:50:36.820Z,51.86
2024-02-29T00:53:04.500Z,51.55
2024-02-29T00:55:32.025Z,52.02
2024-02-29T00:57:59.602Z,51.48
2024-02-29T01:00:28.543Z,51.68
2024-02-29T01:02:56.069Z,52.12
2024-02-29T01:05:23.667Z,52.21
2024-02-29T01:07:52.282Z,52.30
2024-02-29T01:10:20.118Z,51.80
2024-02-29T01:12:47.990Z,52.50
2024-02-29T01:15:15.937Z,52.51
2024-02-29T01:17:46.721Z,51.55
2024-02-29T01:20:15.141Z,52.90
2024-02-29T01:22:42.600Z,53.04
2024-02-29T01:25:11.196Z,51.56
2024-02-29T01:27:38.875Z,51.98
2024-02-29T01:30:07.534Z,52.71
2024-02-29T01:32:37.666Z,51.95
2024-02-29T01:35:09.896Z,52.35
2024-02-29T01:37:37.602Z,51.90
2024-02-29T01:40:06.612Z,52.52
2024-02-29T01:42:34.956Z,52.30
2024-02-29T01:45:04.094Z,52.74
2024-02-29T01:47:31.644Z,52.09
2024-02-29T01:50:00.710Z,52.83
2024-02-29T01:52:32.497Z,52.91
2024-02-29T01:55:00.250Z,53.30
2024-02-29T01:57:28.772Z,52.38
2024-02-29T01:59:56.320Z,52.74
2024-02-29T02:02:23.985Z,52.47
2024-02-29T02:04:51.805Z,52.93
2024-02-29T02:07:19.471Z,52.78
2024-02-29T02:09:48.411Z,52.25
2024-02-29T02:12:16.124Z,52.23
2024-02-29T02:14:43.750Z,51.81
2024-02-29T02:17:12.069Z,52.86
2024-02-29T02:19:40.868Z,53.06
2024-02-29T02:22:10.955Z,52.18
2024-02-29T02:24:38.835Z,51.92
2024-02-29T02:27:06.471Z,52.62
2024-02-29T02:29:34.065Z,52.60
2024-02-29T02:32:01.648Z,52.15
2024-02-29T02:34:29.199Z,52.87
2024-02-29T02:36:56.829Z,52.72
2024-02-29T02:39:25.700Z,52.68
2024-02-29T02:41:53.276Z,53.05
2024-02-29T02:44:20.811Z,52.40
2024-02-29T02:46:48.313Z,53.20
2024-02-29T02:49:17.026Z,52.93
2024-02-29T02:51:44.738Z,52.90
2024-02-29T02:54:12.356Z,52.72
2024-02-29T02:56:41.185Z,52.42
2024-02-29T02:59:08.731Z,52.43
2024-02-29T03:01:36.276Z,54.02
2024-02-29T03:04:05.376Z,54.20
2024-02-29T03:06:33.067Z,53.95
2024-02-29T03:09:00.586Z,52.92
2024-02-29T03:11:28.235Z,52.93
2024-02-29T03:13:57.139Z,53.40
2024-02-29T03:16:25.162Z,54.08
2024-02-29T03:18:52.722Z,53.60
2024-02-29T03:21:20.515Z,53.26
2024-02-29T03:23:48.478Z,53.58
2024-02-29T03:26:16.320Z,54.42
2024-02-29T03:28:44.041Z,53.11
2024-02-29T03:31:14.447Z,53.29
2024-02-29T03:33:42.654Z,52.82
2024-02-29T03:36:10.667Z,53.18
2024-02-29T03:38:38.686Z,54.33
2024-02-29T03:41:07.983Z,53.76
2024-02-29T03:43:36.392Z,54.18
2024-02-29T03:46:04.058Z,54.34
2024-02-29T03:48:33.224Z,55.05
2024-02-29T03:51:01.088Z,55.32
2024-02-29T03:53:28.680Z,54.68
2024-02-29T03:55:56.237Z,53.48
2024-02-29T03:58:23.832Z,53.80
2024-02-29T04:00:51.474Z,53.30
2024-02-29T04:03:19.326Z,54.03
2024-02-29T04:05:48.251Z,54.02
2024-02-29T04:08:15.813Z,53.29
2024-02-29T04:10:47.182Z,53.95
2024-02-29T04:13:14.872Z,53.88
2024-02-29T04:15:42.565Z,54.59
2024-02-29T04:18:10.146Z,54.09
2024-02-29T04:20:37.766Z,53.84
2024-02-29T04:23:06.714Z,54.22
2024-02-29T04:25:35.136Z,54.39
2024-02-29T04:28:03.131Z,54.12
2024-02-29T04:30:30.968Z,54.04
2024-02-29T04:32:58.673Z,52.87
2024-02-29T04:35:26.288Z,54.00
2024-02-29T04:37:53.931Z,54.49
2024-02-29T04:40:22.859Z,53.82
2024-02-29T04:42:50.439Z,53.30
2024-02-29T04:45:18.060Z,54.66
2024-02-29T04:47:45.770Z,54.76
2024-02-29T04:50:13.389Z,54.71
2024-02-29T04:52:40.930Z,55.23
2024-02-29T04:55:09.354Z,53.57
2024-02-29T04:57:38.293Z,53.82
2024-02-29T05:00:07.493Z,53.90
2024-02-29T05:02:35.329Z,54.29
2024-02-29T05:05:02.857Z,54.16
2024-02-29T05:07:30.452Z,53.94
2024-02-29T05:09:58.087Z,53.83
2024-02-29T05:12:27.939Z,54.00
2024-02-29T05:15:00.497Z,53.80
2024-02-29T05:17:28.185Z,54.33
2024-02-29T05:19:57.308Z,53.86
2024-02-29T05:22:24.944Z,53.52
2024-02-29T05:24:52.581Z,54.26
2024-02-29T05:27:20.120Z,54.93
2024-02-29T05:29:47.653Z,54.45
2024-02-29T05:32:18.756Z,53.95
2024-02-29T05:34:47.190Z,54.39
2024-02-29T05:37:15.215Z,54.87
2024-02-29T05:39:43.503Z,55.52
2024-02-29T05:42:11.099Z,54.67
2024-02-29T05:44:38.854Z,53.66
2024-02-29T05:47:06.619Z,53.88
2024-02-29T05:49:35.447Z,54.78
2024-02-29T05:52:03.076Z,54.26
2024-02-29T05:54:30.904Z,54.42
2024-02-29T05:56:59.683Z,53.93
2024-02-29T05:59:28.397Z,53.47
2024-02-29T06:01:56.098Z,53.83
2024-02-29T06:04:23.847Z,54.75
2024-02-29T06:06:52.731Z,53.56
2024-02-29T06:09:20.229Z,54.27
2024-02-29T06:11:48.802Z,54.13
2024-02-29T06:14:16.331Z,54.57
2024-02-29T06:16:43.769Z,54.85
2024-02-29T06:19:11.417Z,54.70
2024-02-29T06:21:39.000Z,53.34
2024-02-29T06:24:08.636Z,53.40
2024-02-29T06:26:36.323Z,53.54
2024-02-29T06:29:03.894Z,53.47
2024-02-29T06:31:31.381Z,54.96
2024-02-29T06:33:59.251Z,53.40
2024-02-29T06:36:26.881Z,53.66
2024-02-29T06:38:54.392Z,53.50
2024-02-29T06:41:23.215Z,53.88
2024-02-29T06:43:50.819Z,53.59
2024-02-29T06:46:18.911Z,54.07
2024-02-29T06:48:46.554Z,54.32
2024-02-29T06:51:14.064Z,54.04
2024-02-29T06:53:41.608Z,53.93
2024-02-29T06:56:09.137Z,54.28
2024-02-29T06:58:38.162Z,53.62
2024-02-29T07:01:07.397Z,53.26
2024-02-29T07:03:35.154Z,53.83
2024-02-29T07:06:03.871Z,54.10
2024-02-29T07:08:35.444Z,55.16
2024-02-29T07:11:05.006Z,54.44
2024-02-29T07:13:33.238Z,53.71
2024-02-29T07:16:26.936Z,54.31
2024-02-29T07:18:54.711Z,53.53
2024-02-29T07:21:22.294Z,55.04
2024-02-29T07:23:50.825Z,53.99
2024-02-29T07:26:19.264Z,54.06
2024-02-29T07:28:47.144Z,54.03
2024-02-29T07:31:14.747Z,53.61
2024-02-29T07:33:44.077Z,52.89
2024-02-29T07:36:12.232Z,53.39
2024-02-29T07:38:40.189Z,53.62
2024-02-29T07:41:08.024Z,53.54
2024-02-29T07:43:35.696Z,54.01
2024-02-29T07:46:03.667Z,53.05
2024-02-29T07:48:32.406Z,54.77
2024-02-29T07:51:01.640Z,53.32
2024-02-29T07:53:30.589Z,52.57
2024-02-29T07:55:58.649Z,52.98
2024-02-29T07:58:27.516Z,52.00
2024-02-29T08:00:55.506Z,52.03
2024-02-29T08:03:23.270Z,52.77
2024-02-29T08:05:50.906Z,52.56
2024-02-29T08:08:20.130Z,52.17
2024-02-29T08:10:47.861Z,52.05
2024-02-29T08:13:15.710Z,52.20
2024-02-29T08:15:44.338Z,51.85
2024-02-29T08:18:12.715Z,52.16
2024-02-29T08:20:40.659Z,52.38
2024-02-29T08:23:08.579Z,52.01
2024-02-29T08:25:38.011Z,52.10
2024-02-29T08:28:06.771Z,51.56
2024-02-29T08:30:34.575Z,51.39
2024-02-29T08:33:02.663Z,51.43
2024-02-29T08:35:30.598Z,51.47
2024-02-29T08:37:58.414Z,51.31
2024-02-29T08:40:26.609Z,51.12
2024-02-29T08:42:55.899Z,51.23
2024-02-29T08:45:24.135Z,51.00
2024-02-29T08:47:52.041Z,50.92
2024-02-29T08:50:19.779Z,50.87
2024-02-29T08:52:48.347Z,50.64
2024-02-29T08:55:16.104Z,50.30
2024-02-29T08:57:44.257Z,50.50
2024-02-29T09:00:17.387Z,50.74
2024-02-29T09:02:46.151Z,50.83
2024-02-29T09:05:14.013Z,50.26
2024-02-29T09:07:41.701Z,50.62
2024-02-29T09:10:10.876Z,49.96
2024-02-29T09:12:38.665Z,50.57
2024-02-29T09:15:06.919Z,50.33
2024-02-29T09:17:35.865Z,49.96
2024-02-29T09:20:06.000Z,49.99
2024-02-29T09:22:33.718Z,49.90
2024-02-29T09:25:01.436Z,49.47
2024-02-29T09:27:29.271Z,49.74
2024-02-29T09:29:58.560Z,50.23
2024-02-29T09:32:27.028Z,50.17
2024-02-29T09:34:56.014Z,49.91
2024-02-29T09:37:23.811Z,49.69
2024-02-29T09:39:51.898Z,50.30
2024-02-29T09:42:19.926Z,49.44
2024-02-29T09:44:49.169Z,49.91
2024-02-29T09:47:20.337Z,49.97
2024-02-29T09:49:51.197Z,49.28
2024-02-29T09:52:25.333Z,49.62
2024-02-29T09:54:54.132Z,48.78
2024-02-29T09:57:22.573Z,49.14
2024-02-29T09:59:50.598Z,49.10
2024-02-29T10:02:18.436Z,49.51
2024-02-29T10:04:47.376Z,49.15
2024-02-29T10:07:15.797Z,48.91
2024-02-29T10:09:45.652Z,48.71
2024-02-29T10:12:18.584Z,48.81
2024-02-29T10:14:47.304Z,48.66
2024-02-29T10:17:14.903Z,49.08
2024-02-29T10:19:42.767Z,48.10
2024-02-29T10:22:10.405Z,48.51
2024-02-29T10:24:38.121Z,46.36
2024-02-29T10:27:07.248Z,47.37
2024-02-29T10:29:34.982Z,46.48
2024-02-29T10:32:02.552Z,45.62
2024-02-29T10:34:30.154Z,45.12
2024-02-29T10:36:57.924Z,45.64
2024-02-29T10:39:26.826Z,43.47
2024-02-29T10:41:56.900Z,44.63
2024-02-29T10:44:32.191Z,42.58
2024-02-29T10:47:04.123Z,43.15
2024-02-29T10:49:37.958Z,43.34
2024-02-29T10:52:12.898Z,41.40
2024-02-29T10:54:46.747Z,42.33
2024-02-29T10:57:17.213Z,40.54
2024-02-29T10:59:52.301Z,39.74
2024-02-29T11:02:21.902Z,39.13
2024-02-29T11:04:49.923Z,38.75
2024-02-29T11:07:17.922Z,39.51
2024-02-29T11:09:45.782Z,37.87
2024-02-29T11:12:15.646Z,37.09
2024-02-29T11:14:47.837Z,35.65
2024-02-29T11:17:16.727Z,36.81
2024-02-29T11:19:52.114Z,36.45
2024-02-29T11:22:34.452Z,35.29
2024-02-29T11:25:10.786Z,34.08
2024-02-29T11:27:39.486Z,34.86
2024-02-29T11:30:19.263Z,35.49
2024-02-29T11:32:46.961Z,34.74
2024-02-29T11:35:15.873Z,34.52
2024-02-29T11:37:45.520Z,34.10
2024-02-29T11:43:02.725Z,33.13
2024-02-29T11:45:32.482Z,34.13
2024-02-29T11:48:01.467Z,35.51
2024-02-29T11:50:30.734Z,33.62
2024-02-29T11:53:02.195Z,30.67
2024-02-29T11:55:32.126Z,32.77
2024-02-29T11:58:00.780Z,31.70
2024-02-29T12:00:29.435Z,31.95
2024-02-29T12:02:58.911Z,32.68
2024-02-29T12:05:26.602Z,32.77
2024-02-29T12:07:55.649Z,30.04
2024-02-29T12:10:25.069Z,31.89
2024-02-29T12:12:52.882Z,29.25
2024-02-29T12:15:23.591Z,33.56
2024-02-29T12:17:51.298Z,30.94
2024-02-29T12:20:20.246Z,28.88
2024-02-29T12:22:50.224Z,31.09
2024-02-29T12:25:18.813Z,28.68
2024-02-29T12:27:47.156Z,32.07
2024-02-29T12:30:15.497Z,30.40
2024-02-29T12:32:44.374Z,31.00
2024-02-29T12:35:13.930Z,28.33
2024-02-29T12:37:44.392Z,24.63
2024-02-29T12:40:14.258Z,28.64
2024-02-29T12:42:44.020Z,25.49
2024-02-29T12:45:15.979Z,33.37
2024-02-29T12:47:45.794Z,27.82
2024-02-29T12:50:13.590Z,27.06
2024-02-29T12:52:41.262Z,29.03
2024-02-29T12:55:11.484Z,26.84
2024-02-29T12:57:39.558Z,22.96
2024-02-29T13:00:09.773Z,26.99
2024-02-29T13:02:48.347Z,28.78
2024-02-29T13:05:16.398Z,24.91
2024-02-29T13:07:44.292Z,28.74
2024-02-29T13:10:13.618Z,27.39
2024-02-29T13:12:42.422Z,28.83
2024-02-29T13:15:11.158Z,27.16
2024-02-29T13:17:40.234Z,29.51
2024-02-29T13:20:08.762Z,27.88
2024-02-29T13:22:36.772Z,28.01
2024-02-29T13:25:05.659Z,27.66
2024-02-29T13:27:35.253Z,26.96
2024-02-29T13:30:04.300Z,27.84
2024-02-29T13:32:33.276Z,30.04
2024-02-29T13:35:02.563Z,26.94
2024-02-29T13:37:30.884Z,27.29
2024-02-29T13:39:58.562Z,29.62
2024-02-29T13:42:26.322Z,29.22
2024-02-29T13:44:55.653Z,29.85
2024-02-29T13:47:23.387Z,31.01
2024-02-29T13:49:51.152Z,30.32
2024-02-29T13:52:19.310Z,32.06
2024-02-29T13:54:47.884Z,31.22
2024-02-29T13:57:15.849Z,31.51
2024-02-29T13:59:44.463Z,32.94
2024-02-29T14:02:13.559Z,32.68
2024-02-29T14:04:43.599Z,32.62
2024-02-29T14:07:11.352Z,33.54
2024-02-29T14:09:39.278Z,34.09
2024-02-29T14:12:07.068Z,34.24
2024-02-29T14:14:34.746Z,34.55
2024-02-29T14:17:02.477Z,34.84
2024-02-29T14:19:33.302Z,34.92
2024-02-29T14:22:01.701Z,35.04
2024-02-29T14:24:29.418Z,35.65
2024-02-29T14:26:57.496Z,35.76
2024-02-29T14:29:25.289Z,35.79
2024-02-29T14:31:53.011Z,35.85
2024-02-29T14:34:21.455Z,36.14
2024-02-29T14:36:50.662Z,36.36
2024-02-29T14:39:21.234Z,36.75
2024-02-29T14:41:49.394Z,36.86
2024-02-29T14:44:17.139Z,36.67
2024-02-29T14:46:45.189Z,36.87
2024-02-29T14:49:15.934Z,37.12
2024-02-29T14:51:43.629Z,37.05
2024-02-29T14:54:12.764Z,37.65
2024-02-29T14:56:40.673Z,38.03
2024-02-29T14:59:09.205Z,38.12
2024-02-29T15:01:36.874Z,37.89
2024-02-29T15:04:04.666Z,38.02
2024-02-29T15:06:32.407Z,38.43
2024-02-29T15:08:59.993Z,38.45
2024-02-29T15:11:29.257Z,38.28
2024-02-29T15:13:56.900Z,38.29
2024-02-29T15:16:24.643Z,38.71
2024-02-29T15:18:52.580Z,38.66
2024-02-29T15:21:20.759Z,38.86
2024-02-29T15:23:49.332Z,38.64
2024-02-29T15:26:17.247Z,38.77
2024-02-29T15:28:49.783Z,38.90
2024-02-29T15:31:17.940Z,38.97
2024-02-29T15:33:46.684Z,39.00
2024-02-29T15:36:14.595Z,39.40
2024-02-29T15:38:54.685Z,39.51
2024-02-29T15:41:22.457Z,40.01
2024-02-29T15:43:53.901Z,39.67
2024-02-29T15:46:21.565Z,40.31
2024-02-29T15:48:49.288Z,40.29
2024-02-29T15:51:16.914Z,40.18
2024-02-29T15:53:45.101Z,41.10
2024-02-29T15:56:15.315Z,40.56
2024-02-29T15:58:43.373Z,40.09
2024-02-29T16:01:12.365Z,40.38
2024-02-29T16:03:40.048Z,40.59
2024-02-29T16:06:09.628Z,40.64
2024-02-29T16:08:37.226Z,40.20
2024-02-29T16:11:06.421Z,41.11
2024-02-29T16:13:35.909Z,41.08
2024-02-29T16:16:04.376Z,41.39
2024-02-29T16:18:33.451Z,41.21
2024-02-29T16:21:03.060Z,40.83
2024-02-29T16:23:30.716Z,41.46
2024-02-29T16:25:58.361Z,41.50
2024-02-29T16:28:27.071Z,41.32
2024-02-29T16:30:54.939Z,41.31
2024-02-29T16:33:22.860Z,41.26
2024-02-29T16:35:51.952Z,41.18
2024-02-29T16:38:20.224Z,41.23
2024-02-29T16:40:48.178Z,40.88
2024-02-29T16:43:21.420Z,41.28
2024-02-29T16:45:49.429Z,41.46
2024-02-29T16:48:17.470Z,41.83
2024-02-29T16:50:46.291Z,41.57
2024-02-29T16:53:17.649Z,41.16
2024-02-29T16:55:45.206Z,41.45
2024-02-29T16:58:13.864Z,41.82
2024-02-29T17:00:41.587Z,41.31
2024-02-29T17:03:09.280Z,42.02
2024-02-29T17:05:36.820Z,41.98
2024-02-29T17:08:05.555Z,42.13
2024-02-29T17:10:34.435Z,42.64
2024-02-29T17:13:02.096Z,42.69
2024-02-29T17:15:29.658Z,42.74
2024-02-29T17:17:57.247Z,42.62
2024-02-29T17:20:25.096Z,42.75
2024-02-29T17:22:52.668Z,42.41
2024-02-29T17:25:20.255Z,42.41
2024-02-29T17:27:49.305Z,42.04
2024-02-29T17:30:17.464Z,42.56
2024-02-29T17:32:47.459Z,42.44
2024-02-29T17:35:16.511Z,42.46
2024-02-29T17:37:44.876Z,42.73
2024-02-29T17:40:13.609Z,42.69
2024-02-29T17:42:41.175Z,42.58
2024-02-29T17:45:11.434Z,42.65
2024-02-29T17:47:41.522Z,42.69
2024-02-29T17:50:16.478Z,42.60
2024-02-29T17:52:47.263Z,42.90
2024-02-29T17:55:15.503Z,43.24
2024-02-29T17:57:43.875Z,43.46
2024-02-29T18:00:15.283Z,43.39
2024-02-29T18:02:44.759Z,43.44
2024-02-29T18:05:12.705Z,43.75
2024-02-29T18:07:47.497Z,43.77
2024-02-29T18:10:22.906Z,43.91
2024-02-29T18:12:50.704Z,43.80
2024-02-29T18:15:19.637Z,43.81
2024-02-29T18:17:47.189Z,44.01
2024-02-29T18:20:17.845Z,43.86
2024-02-29T18:22:45.727Z,44.11
2024-02-29T18:25:13.662Z,44.58
2024-02-29T18:31:55.374Z,44.63
2024-02-29T18:34:22.851Z,45.13
2024-02-29T18:36:50.422Z,45.06
2024-02-29T18:39:18.018Z,45.39
2024-02-29T18:41:45.514Z,46.30
2024-02-29T18:44:14.386Z,45.41
2024-02-29T18:46:43.107Z,45.28
2024-02-29T18:49:12.356Z,45.54
2024-02-29T18:51:44.134Z,45.08
2024-02-29T18:54:11.648Z,46.07
2024-02-29T18:56:41.623Z,46.84
2024-02-29T18:59:09.875Z,46.32
2024-02-29T19:01:37.876Z,46.14
2024-02-29T19:04:05.838Z,47.10
2024-02-29T19:06:34.734Z,46.74
2024-02-29T19:09:02.429Z,46.65
2024-02-29T19:11:30.035Z,46.49
2024-02-29T19:13:57.985Z,46.08
2024-02-29T19:16:27.007Z,48.36
2024-02-29T19:18:54.702Z,46.73
2024-02-29T19:21:22.547Z,46.63
2024-02-29T19:23:51.399Z,45.41
2024-02-29T19:26:19.008Z,46.09
2024-02-29T19:28:46.497Z,46.42
2024-02-29T19:31:16.433Z,46.27
2024-02-29T19:33:44.642Z,46.62
2024-02-29T19:36:16.112Z,46.67
2024-02-29T19:38:43.786Z,47.01
2024-02-29T19:41:12.938Z,46.29
2024-02-29T19:43:40.531Z,47.28
2024-02-29T19:46:08.244Z,47.63
2024-02-29T19:48:36.328Z,46.99
2024-02-29T19:51:08.157Z,47.01
2024-02-29T19:53:36.846Z,46.76
2024-02-29T19:56:04.787Z,46.75
2024-02-29T19:58:33.675Z,47.50
2024-02-29T20:01:02.229Z,46.99
2024-02-29T20:03:30.175Z,47.38
2024-02-29T20:05:58.876Z,47.68
2024-02-29T20:08:26.518Z,47.18
2024-02-29T20:10:54.042Z,47.65
2024-02-29T20:13:21.842Z,47.40
2024-02-29T20:15:51.098Z,47.04
2024-02-29T20:18:19.183Z,47.86
2024-02-29T20:20:46.752Z,47.84
2024-02-29T20:23:14.378Z,47.17
2024-02-29T20:25:44.426Z,48.38
2024-02-29T20:28:11.966Z,47.53
2024-02-29T20:30:40.061Z,47.04
2024-02-29T20:33:08.954Z,47.07
2024-02-29T20:35:36.644Z,47.10
2024-02-29T20:38:04.374Z,47.10
2024-02-29T20:40:31.925Z,47.57
2024-02-29T20:42:59.482Z,47.34
2024-02-29T20:45:26.963Z,47.91
2024-02-29T20:47:54.485Z,48.10
2024-02-29T20:50:23.698Z,48.25
2024-02-29T20:52:51.287Z,48.87
2024-02-29T20:55:19.086Z,48.44
2024-02-29T20:57:46.766Z,48.07
2024-02-29T21:00:15.368Z,47.93
2024-02-29T21:02:42.899Z,48.36
2024-02-29T21:05:10.452Z,49.41
2024-02-29T21:07:42.163Z,49.16
2024-02-29T21:10:12.024Z,49.09
2024-02-29T21:12:39.845Z,49.32
2024-02-29T21:15:08.446Z,48.99
2024-02-29T21:17:36.023Z,49.38
2024-02-29T21:20:03.779Z,49.25
2024-02-29T21:22:31.339Z,49.70
2024-02-29T21:25:02.531Z,49.43
2024-02-29T21:27:30.144Z,49.00
2024-02-29T21:29:57.645Z,49.82
2024-02-29T21:32:25.378Z,49.46
2024-02-29T21:34:52.958Z,48.80
2024-02-29T21:37:20.485Z,49.15
2024-02-29T21:39:48.125Z,48.43
2024-02-29T21:42:17.028Z,48.79
2024-02-29T21:44:46.432Z,48.60
2024-02-29T21:47:13.924Z,48.31
2024-02-29T21:49:41.795Z,48.19
2024-02-29T21:52:09.403Z,48.48
2024-02-29T21:54:40.001Z,48.88
2024-02-29T21:57:07.523Z,49.61
2024-02-29T21:59:36.359Z,48.94
2024-02-29T22:02:04.147Z,48.72
2024-02-29T22:04:31.755Z,48.27
2024-02-29T22:06:59.372Z,48.40
2024-02-29T22:09:26.863Z,48.72
2024-02-29T22:11:55.350Z,48.22
2024-02-29T22:14:22.848Z,48.85
2024-02-29T22:16:51.654Z,49.38
2024-02-29T22:19:19.416Z,48.90
2024-02-29T22:21:46.962Z,49.18
2024-02-29T22:24:16.787Z,48.79
2024-02-29T22:26:44.601Z,49.13
2024-02-29T22:29:13.220Z,49.29
2024-02-29T22:31:41.926Z,48.81
2024-02-29T22:34:11.924Z,49.29
2024-02-29T22:36:39.498Z,48.90
2024-02-29T22:39:07.118Z,49.05
2024-02-29T22:41:38.239Z,49.13
2024-02-29T22:44:12.690Z,48.90
2024-02-29T22:46:40.300Z,49.31
2024-02-29T22:49:07.844Z,49.39
2024-02-29T22:51:36.684Z,48.89
2024-02-29T22:54:04.319Z,49.00
2024-02-29T22:56:31.873Z,49.53
2024-02-29T22:58:59.366Z,49.61
2024-02-29T23:01:28.797Z,50.13
2024-02-29T23:03:56.440Z,50.30
2024-02-29T23:06:23.987Z,50.81
2024-02-29T23:08:52.737Z,51.11
2024-02-29T23:11:20.220Z,50.66
2024-02-29T23:13:48.025Z,51.02
2024-02-29T23:16:15.656Z,51.30
2024-02-29T23:18:43.138Z,51.18
2024-02-29T23:21:10.917Z,51.77
2024-02-29T23:23:38.424Z,51.88
2024-02-29T23:26:08.133Z,51.48
2024-02-29T23:28:35.973Z,51.46
2024-02-29T23:31:03.533Z,51.42
2024-02-29T23:33:31.046Z,51.98
2024-02-29T23:35:58.533Z,51.57
2024-02-29T23:38:26.008Z,52.38
2024-02-29T23:40:53.488Z,51.73
2024-02-29T23:43:22.369Z,51.36
2024-02-29T23:45:49.907Z,51.87
2024-02-29T23:48:17.792Z,52.03
2024-02-29T23:50:45.597Z,51.79
2024-02-29T23:53:13.174Z,52.19
2024-02-29T23:55:40.773Z,52.00
2024-02-29T23:58:08.274Z,52.42
